Time;durP1;ratioP1;P1;durP2;ratioP2;P2;SDS_P1;SDS_P2;PMS_P1;PMS_P2;Temp;Humidity;BMP_temperature;BMP_pressure;BME280_temperature;BME280_humidity;BME280_pressure;Samples;Min_cycle;Max_cycle;Signal;HPM_P1;HPM_P2
2022/11/13 00:02:01;;;;;;;31.13;15.73;;;;;;;14.62;100.00;102561.19;4984620;28;20054;-51
2022/11/13 00:04:46;;;;;;;32.20;16.63;;;;;;;14.36;100.00;102558.88;4981825;28;20277;-49
2022/11/13 00:07:30;;;;;;;29.75;16.33;;;;;;;14.31;100.00;102553.19;4986662;28;20053;-53
2022/11/13 00:10:14;;;;;;;33.78;16.08;;;;;;;14.31;100.00;102554.03;4978896;28;20045;-52
2022/11/13 00:12:59;;;;;;;33.80;16.90;;;;;;;14.66;100.00;102545.53;4987052;28;20073;-46
2022/11/13 00:15:43;;;;;;;32.13;15.35;;;;;;;14.30;100.00;102546.13;4992541;28;20065;-52
2022/11/13 00:18:28;;;;;;;38.30;18.17;;;;;;;16.81;100.00;102552.84;4989865;28;20058;-52
2022/11/13 00:21:17;;;;;;;29.23;15.13;;;;;;;15.16;100.00;102547.78;4988017;28;20107;-51
2022/11/13 00:24:01;;;;;;;36.78;16.88;;;;;;;14.51;100.00;102542.78;4991935;28;20065;-52
2022/11/13 00:26:46;;;;;;;35.03;15.90;;;;;;;14.34;100.00;102545.59;4990042;28;20073;-53
2022/11/13 00:29:30;;;;;;;30.98;17.05;;;;;;;14.06;100.00;102534.50;4992328;28;20067;-50
2022/11/13 00:32:14;;;;;;;25.70;13.43;;;;;;;14.47;100.00;102528.84;4989073;28;20107;-51
2022/11/13 00:34:58;;;;;;;27.23;13.15;;;;;;;14.14;100.00;102536.31;4989897;28;20077;-50
2022/11/13 00:37:42;;;;;;;30.42;14.77;;;;;;;14.11;100.00;102529.44;4991606;28;20068;-48
2022/11/13 00:40:26;;;;;;;29.58;14.95;;;;;;;14.36;100.00;102515.81;4991066;28;20441;-52
2022/11/13 00:43:10;;;;;;;22.27;13.90;;;;;;;14.26;100.00;102515.19;4986388;28;20046;-50
2022/11/13 00:45:54;;;;;;;28.42;14.75;;;;;;;13.88;100.00;102513.25;4991610;28;20068;-49
2022/11/13 00:48:39;;;;;;;32.60;14.90;;;;;;;14.68;100.00;102507.66;4984657;28;20046;-54
2022/11/13 00:51:23;;;;;;;27.73;14.20;;;;;;;13.87;100.00;102507.06;4991750;28;20135;-50
2022/11/13 00:54:07;;;;;;;30.35;15.05;;;;;;;13.86;100.00;102502.69;4992646;28;20208;-54
2022/11/13 00:56:51;;;;;;;30.30;15.43;;;;;;;17.23;100.00;102498.88;4987510;28;20073;-52
2022/11/13 00:59:36;;;;;;;30.73;15.48;;;;;;;17.95;100.00;102516.66;4992633;28;20053;-52
2022/11/13 01:02:21;;;;;;;24.83;13.65;;;;;;;18.31;100.00;102519.03;4992030;28;20045;-51
2022/11/13 01:05:05;;;;;;;31.88;15.40;;;;;;;14.10;100.00;102511.63;4988427;28;20041;-53
2022/11/13 01:07:49;;;;;;;27.95;14.18;;;;;;;13.64;100.00;102519.59;4986534;28;20039;-52
2022/11/13 01:10:39;;;;;;;22.92;12.55;;;;;;;13.42;100.00;102513.94;4994439;28;20046;-49
2022/11/13 01:13:23;;;;;;;30.70;15.20;;;;;;;13.51;100.00;102510.22;4985964;28;20065;-52
2022/11/13 01:16:09;;;;;;;25.23;14.20;;;;;;;13.43;100.00;102507.59;4985735;28;20065;-51
2022/11/13 01:18:55;;;;;;;28.38;13.52;;;;;;;13.98;100.00;102510.34;4986519;28;20068;-50
2022/11/13 01:21:40;;;;;;;28.25;14.55;;;;;;;15.39;100.00;102507.28;4994343;28;20113;-55
2022/11/13 01:24:25;;;;;;;29.05;15.32;;;;;;;14.38;100.00;102508.41;4986946;28;20045;-50
2022/11/13 01:27:09;;;;;;;25.88;15.63;;;;;;;14.86;100.00;102502.78;4988278;28;20069;-51
2022/11/13 01:29:53;;;;;;;24.83;14.05;;;;;;;15.58;100.00;102503.16;4987264;28;20049;-51
2022/11/13 01:32:38;;;;;;;22.73;13.98;;;;;;;15.14;100.00;102504.03;4988096;28;20543;-52
2022/11/13 01:35:22;;;;;;;29.67;15.45;;;;;;;13.70;100.00;102510.81;4989080;28;20053;-50
2022/11/13 01:38:07;;;;;;;25.88;13.63;;;;;;;16.16;100.00;102497.00;4983289;28;20069;-49
2022/11/13 01:40:51;;;;;;;29.83;14.35;;;;;;;16.15;100.00;102489.94;4986833;28;20049;-52
2022/11/13 01:43:37;;;;;;;27.02;14.88;;;;;;;13.55;100.00;102494.59;4985868;28;20098;-50
2022/11/13 01:46:26;;;;;;;28.17;14.93;;;;;;;13.56;100.00;102491.72;4985229;28;20471;-50
2022/11/13 01:49:23;;;;;;;30.60;16.13;;;;;;;13.14;100.00;102482.09;4986573;28;20066;-55
2022/11/13 01:52:30;;;;;;;27.50;13.65;;;;;;;14.03;100.00;102481.06;4986377;28;20057;-51
2022/11/13 01:55:17;;;;;;;28.90;15.25;;;;;;;13.87;100.00;102479.31;4985473;28;20049;-52
2022/11/13 01:58:04;;;;;;;24.83;14.45;;;;;;;13.72;100.00;102476.53;4987926;28;20073;-50
2022/11/13 02:00:48;;;;;;;26.83;14.93;;;;;;;13.57;100.00;102471.06;4987148;28;20053;-50
2022/11/13 02:03:33;;;;;;;28.05;14.63;;;;;;;13.85;100.00;102474.13;4986902;28;20050;-51
2022/11/13 02:06:20;;;;;;;22.73;14.10;;;;;;;14.14;100.00;102463.66;4990510;28;20045;-51
2022/11/13 02:09:06;;;;;;;28.52;15.48;;;;;;;14.23;100.00;102464.44;4991701;28;20475;-50
2022/11/13 02:11:51;;;;;;;24.17;15.50;;;;;;;14.03;100.00;102452.31;4988516;28;20050;-52
2022/11/13 02:14:38;;;;;;;22.52;13.88;;;;;;;14.11;100.00;102450.56;4990811;28;20076;-52
2022/11/13 02:17:29;;;;;;;22.40;13.20;;;;;;;13.57;100.00;102455.78;4989139;28;20073;-50
2022/11/13 02:20:16;;;;;;;25.52;14.25;;;;;;;13.47;100.00;102442.53;4988954;28;20069;-51
2022/11/13 02:23:19;;;;;;;26.40;14.77;;;;;;;13.44;100.00;102442.91;4990809;28;20046;-53
2022/11/13 02:26:05;;;;;;;26.48;15.27;;;;;;;13.34;100.00;102439.56;4989913;28;20049;-50
2022/11/13 02:28:49;;;;;;;27.35;15.32;;;;;;;13.19;100.00;102432.22;4986398;28;20046;-54
2022/11/13 02:31:34;;;;;;;25.20;14.88;;;;;;;13.12;100.00;102422.34;4990263;28;20058;-53
2022/11/13 02:34:18;;;;;;;28.45;14.93;;;;;;;13.31;100.00;102419.25;4988229;28;20065;-53
2022/11/13 02:37:02;;;;;;;25.73;15.30;;;;;;;13.38;100.00;102423.91;4990254;28;20113;-50
2022/11/13 02:39:46;;;;;;;29.77;15.85;;;;;;;13.40;100.00;102421.91;4990162;28;20045;-51
2022/11/13 02:42:30;;;;;;;26.88;14.48;;;;;;;13.23;100.00;102416.59;4985539;28;20071;-54
2022/11/13 02:45:16;;;;;;;29.65;14.38;;;;;;;12.91;100.00;102410.31;4988519;28;20088;-51
2022/11/13 02:48:00;;;;;;;27.77;14.45;;;;;;;13.03;100.00;102410.78;4992202;28;20072;-48
2022/11/13 02:50:45;;;;;;;30.50;15.30;;;;;;;13.01;100.00;102410.13;4991275;28;20061;-51
2022/11/13 02:53:29;;;;;;;24.83;14.73;;;;;;;13.14;100.00;102398.84;4988629;28;20073;-50
2022/11/13 02:56:13;;;;;;;25.35;15.00;;;;;;;13.01;100.00;102407.44;4987053;28;20042;-52
2022/11/13 02:58:57;;;;;;;22.77;14.45;;;;;;;12.94;100.00;102401.94;4990964;28;20041;-51
2022/11/13 03:01:43;;;;;;;25.98;15.25;;;;;;;12.82;100.00;102401.47;4990523;28;20050;-51
2022/11/13 03:04:27;;;;;;;24.67;14.30;;;;;;;13.79;100.00;102396.84;4988855;28;20064;-52
2022/11/13 03:07:12;;;;;;;24.83;14.10;;;;;;;13.28;100.00;102397.28;4988390;28;20042;-51
2022/11/13 03:09:57;;;;;;;29.40;15.20;;;;;;;14.33;100.00;102387.00;4988557;28;20052;-54
2022/11/13 03:12:41;;;;;;;33.13;14.50;;;;;;;13.15;100.00;102392.47;4986796;28;20050;-47
2022/11/13 03:15:25;;;;;;;25.38;13.43;;;;;;;13.25;100.00;102384.19;4986137;28;20064;-52
2022/11/13 03:18:11;;;;;;;23.45;13.82;;;;;;;13.67;100.00;102382.16;4986500;28;20058;-48
2022/11/13 03:20:56;;;;;;;19.77;13.60;;;;;;;13.17;100.00;102385.91;4989737;28;20053;-50
2022/11/13 03:23:44;;;;;;;24.35;13.27;;;;;;;12.96;100.00;102394.56;4985489;28;20126;-54
2022/11/13 03:26:28;;;;;;;23.42;13.20;;;;;;;12.87;100.00;102385.69;4986932;28;20065;-52
2022/11/13 03:29:14;;;;;;;20.95;13.32;;;;;;;12.82;100.00;102381.84;4989659;28;20066;-52
2022/11/13 03:31:58;;;;;;;25.77;13.15;;;;;;;14.01;100.00;102383.56;4984512;28;20094;-52
2022/11/13 03:34:42;;;;;;;22.20;13.32;;;;;;;12.94;100.00;102388.53;4988225;28;20101;-51
2022/11/13 03:37:26;;;;;;;22.30;12.35;;;;;;;13.64;100.00;102382.50;4987817;28;20066;-54
2022/11/13 03:40:11;;;;;;;20.77;12.20;;;;;;;13.09;100.00;102377.88;4990062;28;20045;-52
2022/11/13 03:42:54;;;;;;;21.23;13.25;;;;;;;13.16;100.00;102383.41;4990773;28;20066;-53
2022/11/13 03:45:39;;;;;;;20.08;12.15;;;;;;;12.92;100.00;102382.50;4991571;28;20084;-52
2022/11/13 03:48:23;;;;;;;21.73;11.93;;;;;;;12.88;100.00;102381.13;4991310;28;20470;-55
2022/11/13 03:51:08;;;;;;;21.60;11.30;;;;;;;12.92;100.00;102377.13;4994718;28;20038;-53
2022/11/13 03:53:53;;;;;;;21.00;11.32;;;;;;;12.61;100.00;102375.19;4993545;28;20074;-53
2022/11/13 03:56:38;;;;;;;18.67;11.98;;;;;;;15.03;100.00;102374.16;4990160;28;20073;-51
2022/11/13 03:59:22;;;;;;;26.98;11.52;;;;;;;14.13;100.00;102374.06;4992994;28;20050;-53
2022/11/13 04:02:06;;;;;;;21.73;11.93;;;;;;;13.11;100.00;102365.13;4992214;28;20049;-54
2022/11/13 04:04:50;;;;;;;22.33;11.55;;;;;;;13.07;100.00;102371.00;4992666;28;20046;-50
2022/11/13 04:07:35;;;;;;;17.80;10.80;;;;;;;14.03;100.00;102365.38;4991506;28;20041;-52
2022/11/13 04:10:19;;;;;;;23.75;11.15;;;;;;;13.33;100.00;102370.72;4994703;28;20046;-52
2022/11/13 04:13:03;;;;;;;21.27;12.00;;;;;;;12.64;100.00;102361.41;4992071;28;20131;-52
2022/11/13 04:15:47;;;;;;;20.88;11.55;;;;;;;12.54;100.00;102363.47;4991310;28;20110;-50
2022/11/13 04:18:32;;;;;;;24.63;11.60;;;;;;;12.67;100.00;102366.44;4991844;28;20081;-52
2022/11/13 04:21:16;;;;;;;21.98;11.00;;;;;;;12.73;100.00;102367.59;4992147;28;20119;-50
2022/11/13 04:24:00;;;;;;;19.52;10.50;;;;;;;12.57;100.00;102360.44;4993620;28;20050;-47
2022/11/13 04:26:45;;;;;;;19.52;11.05;;;;;;;12.57;100.00;102357.75;4990965;28;20057;-54
2022/11/13 04:29:28;;;;;;;19.48;11.05;;;;;;;12.62;100.00;102360.75;4990442;28;20042;-51
2022/11/13 04:32:13;;;;;;;19.35;10.73;;;;;;;12.62;100.00;102352.69;4992508;28;20113;-52
2022/11/13 04:34:58;;;;;;;20.08;11.38;;;;;;;12.66;100.00;102351.34;4993340;28;20045;-51
2022/11/13 04:37:42;;;;;;;19.40;11.05;;;;;;;12.71;100.00;102358.88;4991092;28;20046;-50
2022/11/13 04:40:26;;;;;;;19.17;11.85;;;;;;;12.82;100.00;102352.31;4988488;28;20060;-51
2022/11/13 04:43:10;;;;;;;20.40;10.68;;;;;;;13.03;100.00;102346.34;4990288;28;20042;-53
2022/11/13 04:45:54;;;;;;;20.60;11.50;;;;;;;14.05;100.00;102349.91;4991642;28;20046;-53
2022/11/13 04:48:38;;;;;;;22.35;11.38;;;;;;;14.69;100.00;102351.28;4987557;28;20037;-53
2022/11/13 04:51:23;;;;;;;20.45;10.95;;;;;;;15.30;100.00;102355.59;4987112;28;20061;-53
2022/11/13 04:54:08;;;;;;;22.23;11.68;;;;;;;13.29;100.00;102346.03;4991532;28;20062;-51
2022/11/13 04:56:52;;;;;;;22.80;12.32;;;;;;;14.97;100.00;102352.50;4987381;28;20103;-50
2022/11/13 04:59:36;;;;;;;22.95;11.82;;;;;;;16.20;100.00;102346.28;4989815;28;20038;-54
2022/11/13 05:02:21;;;;;;;26.23;12.65;;;;;;;14.85;100.00;102344.06;4989353;28;20042;-53
2022/11/13 05:05:06;;;;;;;24.02;12.57;;;;;;;15.16;100.00;102338.47;4990176;28;20062;-53
2022/11/13 05:07:51;;;;;;;22.77;12.00;;;;;;;16.85;100.00;102339.84;4988979;28;20042;-52
2022/11/13 05:10:36;;;;;;;21.83;11.70;;;;;;;12.81;100.00;102339.88;4991071;28;20092;-49
2022/11/13 05:13:20;;;;;;;20.08;11.50;;;;;;;13.15;100.00;102330.69;4988350;28;20074;-52
2022/11/13 05:16:07;;;;;;;21.70;12.32;;;;;;;15.39;100.00;102328.53;4993486;28;20050;-51
2022/11/13 05:18:51;;;;;;;24.67;12.55;;;;;;;12.62;100.00;102328.53;4990073;28;20069;-51
2022/11/13 05:21:37;;;;;;;23.27;12.40;;;;;;;12.95;100.00;102327.59;4989243;28;20065;-49
2022/11/13 05:24:21;;;;;;;18.75;11.50;;;;;;;12.88;100.00;102328.28;4992022;28;20049;-49
2022/11/13 05:27:05;;;;;;;22.08;12.40;;;;;;;12.88;100.00;102332.81;4992263;28;20046;-49
2022/11/13 05:29:49;;;;;;;21.42;12.25;;;;;;;12.71;100.00;102322.16;4991333;28;20190;-53
2022/11/13 05:32:33;;;;;;;22.98;13.15;;;;;;;13.14;100.00;102320.94;4989655;28;20053;-51
2022/11/13 05:35:17;;;;;;;22.65;12.18;;;;;;;14.88;100.00;102330.22;4990075;28;20065;-53
2022/11/13 05:38:02;;;;;;;22.60;13.55;;;;;;;12.31;100.00;102322.06;4992247;28;20050;-54
2022/11/13 05:40:47;;;;;;;21.55;13.38;;;;;;;12.93;100.00;102322.41;4989126;28;20054;-54
2022/11/13 05:43:32;;;;;;;24.30;13.82;;;;;;;15.20;100.00;102315.50;4988169;28;20053;-50
2022/11/13 05:46:22;;;;;;;22.48;13.38;;;;;;;13.87;100.00;102316.13;4993241;28;20049;-51
2022/11/13 05:49:08;;;;;;;25.30;13.90;;;;;;;14.12;100.00;102307.81;4990544;28;20069;-53
2022/11/13 05:51:53;;;;;;;23.70;14.35;;;;;;;12.68;100.00;102308.22;4989156;28;20050;-50
2022/11/13 05:54:38;;;;;;;22.75;13.30;;;;;;;12.70;100.00;102307.06;4988938;28;20041;-48
2022/11/13 05:57:22;;;;;;;21.10;13.20;;;;;;;11.95;100.00;102295.63;4988943;28;20041;-51
2022/11/13 06:00:07;;;;;;;23.20;13.45;;;;;;;12.17;100.00;102299.47;4990344;28;20406;-50
2022/11/13 06:02:52;;;;;;;23.88;13.15;;;;;;;12.19;100.00;102297.44;4992991;28;20050;-47
2022/11/13 06:05:37;;;;;;;28.00;14.05;;;;;;;12.28;100.00;102294.78;4991136;28;20050;-50
2022/11/13 06:08:21;;;;;;;22.95;13.65;;;;;;;12.15;100.00;102287.25;4988323;28;20050;-50
2022/11/13 06:11:10;;;;;;;24.65;14.48;;;;;;;12.16;100.00;102289.75;4992609;28;20057;-53
2022/11/13 06:13:56;;;;;;;29.90;15.52;;;;;;;11.97;100.00;102288.25;4989726;28;20045;-51
2022/11/13 06:16:40;;;;;;;28.88;14.10;;;;;;;11.92;100.00;102279.88;4992405;28;20129;-52
2022/11/13 06:19:25;;;;;;;28.30;15.35;;;;;;;12.04;100.00;102278.53;4987424;28;20046;-50
2022/11/13 06:22:09;;;;;;;26.90;14.88;;;;;;;12.01;100.00;102275.38;4987896;28;20138;-51
2022/11/13 06:24:53;;;;;;;27.77;15.85;;;;;;;12.30;100.00;102279.34;4987864;28;20102;-51
2022/11/13 06:27:37;;;;;;;26.90;15.27;;;;;;;12.19;100.00;102280.53;4986210;28;20053;-50
2022/11/13 06:30:21;;;;;;;26.48;13.80;;;;;;;12.00;100.00;102279.03;4988319;28;20093;-52
2022/11/13 06:33:06;;;;;;;27.35;15.57;;;;;;;12.83;100.00;102279.66;4990714;28;20062;-51
2022/11/13 06:35:50;;;;;;;29.92;16.00;;;;;;;11.76;100.00;102286.06;4990838;28;20045;-49
2022/11/13 06:38:36;;;;;;;28.13;15.75;;;;;;;11.83;100.00;102283.56;4988245;28;20107;-50
2022/11/13 06:41:24;;;;;;;29.70;15.77;;;;;;;11.58;100.00;102272.84;4988933;28;20121;-54
2022/11/13 06:44:09;;;;;;;27.27;15.40;;;;;;;11.74;100.00;102274.66;4991901;28;20061;-51
2022/11/13 06:46:54;;;;;;;26.20;15.50;;;;;;;11.82;100.00;102276.50;4992040;28;20046;-53
2022/11/13 06:49:39;;;;;;;31.80;15.43;;;;;;;11.88;100.00;102265.97;4989972;28;20041;-53
2022/11/13 06:52:23;;;;;;;25.50;16.17;;;;;;;11.66;100.00;102269.31;4991926;28;20064;-51
2022/11/13 06:55:07;;;;;;;26.38;16.95;;;;;;;11.34;100.00;102261.09;4987958;28;20057;-54
2022/11/13 06:57:53;;;;;;;26.77;14.55;;;;;;;11.40;100.00;102262.28;4989003;28;20126;-48
2022/11/13 07:00:38;;;;;;;26.73;15.93;;;;;;;11.91;100.00;102267.47;4989585;28;20053;-51
2022/11/13 07:03:24;;;;;;;27.10;17.00;;;;;;;11.35;100.00;102262.78;4991121;28;20072;-50
2022/11/13 07:06:12;;;;;;;30.33;15.30;;;;;;;11.52;100.00;102265.47;4991559;28;20104;-51
2022/11/13 07:08:57;;;;;;;26.38;16.20;;;;;;;11.38;100.00;102262.44;4990820;28;20046;-49
2022/11/13 07:11:41;;;;;;;28.70;15.93;;;;;;;11.38;100.00;102261.63;4988434;28;20045;-51
2022/11/13 07:14:26;;;;;;;25.38;15.20;;;;;;;11.51;100.00;102269.97;4986451;28;20064;-54
2022/11/13 07:17:10;;;;;;;26.40;15.30;;;;;;;11.84;100.00;102277.19;4988073;28;20041;-53
2022/11/13 07:19:54;;;;;;;29.52;15.85;;;;;;;12.01;100.00;102270.84;4989118;28;20107;-53
2022/11/13 07:22:39;;;;;;;24.85;15.05;;;;;;;11.72;100.00;102274.00;4990611;28;20057;-50
2022/11/13 07:25:25;;;;;;;25.92;15.50;;;;;;;11.82;100.00;102269.31;4986001;28;20050;-54
2022/11/13 07:28:09;;;;;;;24.40;14.73;;;;;;;11.74;100.00;102272.00;4988241;28;20054;-50
2022/11/13 07:30:59;;;;;;;23.25;13.93;;;;;;;11.58;100.00;102259.44;4988434;28;20058;-53
2022/11/13 07:33:43;;;;;;;25.45;14.30;;;;;;;11.55;100.00;102257.94;4991614;28;20065;-50
2022/11/13 07:36:28;;;;;;;23.90;14.52;;;;;;;11.59;100.00;102255.75;4984900;28;20050;-50
2022/11/13 07:39:12;;;;;;;22.60;14.35;;;;;;;11.62;100.00;102255.41;4987156;28;20104;-52
2022/11/13 07:41:57;;;;;;;25.98;14.88;;;;;;;11.72;100.00;102256.09;4985194;28;20046;-49
2022/11/13 07:44:41;;;;;;;25.98;15.13;;;;;;;11.90;100.00;102260.44;4985472;28;20046;-52
2022/11/13 07:47:25;;;;;;;25.45;14.95;;;;;;;11.90;100.00;102255.09;4987636;28;20084;-52
2022/11/13 07:50:10;;;;;;;23.13;13.90;;;;;;;12.01;100.00;102253.94;4986708;28;20065;-52
2022/11/13 07:53:00;;;;;;;23.75;13.85;;;;;;;12.19;100.00;102254.53;4984655;28;20111;-47
2022/11/13 07:55:46;;;;;;;24.38;13.65;;;;;;;12.28;100.00;102257.22;4982622;28;20069;-52
2022/11/13 07:58:30;;;;;;;22.75;13.25;;;;;;;12.65;100.00;102253.03;4988149;28;20123;-52
2022/11/13 08:01:14;;;;;;;23.90;13.25;;;;;;;13.62;100.00;102251.81;4986307;28;20062;-50
2022/11/13 08:03:58;;;;;;;23.60;13.18;;;;;;;14.59;100.00;102264.59;4987244;28;20101;-51
2022/11/13 08:06:42;;;;;;;19.70;12.15;;;;;;;15.39;100.00;102256.59;4987918;28;20046;-56
2022/11/13 08:09:27;;;;;;;24.63;14.02;;;;;;;12.95;100.00;102245.19;4989032;28;20054;-52
2022/11/13 08:12:11;;;;;;;19.83;12.60;;;;;;;12.78;100.00;102239.06;4986613;28;20073;-52
2022/11/13 08:14:56;;;;;;;18.23;12.75;;;;;;;12.78;100.00;102239.06;4987448;28;20066;-52
2022/11/13 08:17:40;;;;;;;24.10;13.10;;;;;;;12.77;100.00;102243.59;4986044;28;20049;-52
2022/11/13 08:20:26;;;;;;;21.35;12.70;;;;;;;12.83;100.00;102233.16;4987295;28;20046;-51
2022/11/13 08:23:10;;;;;;;24.38;14.18;;;;;;;13.19;100.00;102227.25;4986660;28;21610;-52
2022/11/13 08:25:55;;;;;;;25.02;12.98;;;;;;;13.91;100.00;102238.59;4986296;28;20065;-53
2022/11/13 08:28:40;;;;;;;24.52;13.70;;;;;;;12.99;100.00;102233.09;4982434;28;20043;-53
2022/11/13 08:31:24;;;;;;;26.63;14.88;;;;;;;13.00;100.00;102229.38;4987501;28;20107;-49
2022/11/13 08:34:08;;;;;;;28.23;13.93;;;;;;;13.02;100.00;102224.66;4989703;28;20045;-48
2022/11/13 08:36:52;;;;;;;23.38;13.85;;;;;;;12.78;100.00;102225.63;4991794;28;20049;-52
2022/11/13 08:39:36;;;;;;;23.80;13.48;;;;;;;13.15;100.00;102221.38;4989834;28;20049;-49
2022/11/13 08:42:21;;;;;;;22.33;13.43;;;;;;;13.44;100.00;102225.22;4993081;28;20053;-51
2022/11/13 08:45:06;;;;;;;22.65;12.82;;;;;;;15.32;100.00;102221.50;4991429;28;20053;-53
2022/11/13 08:47:51;;;;;;;18.93;11.27;;;;;;;16.90;100.00;102229.28;4993254;28;20049;-52
2022/11/13 08:50:37;;;;;;;19.67;10.23;;;;;;;18.22;100.00;102235.97;4993120;28;20343;-54
2022/11/13 08:53:23;;;;;;;19.90;10.47;;;;;;;18.94;92.49;102235.06;4990124;28;20288;-53
2022/11/13 08:56:08;;;;;;;15.43;9.43;;;;;;;19.57;86.77;102227.94;4988423;28;20261;-54
2022/11/13 08:58:52;;;;;;;18.20;10.87;;;;;;;20.14;82.36;102245.16;4991124;28;20276;-52
2022/11/13 09:01:36;;;;;;;12.43;8.53;;;;;;;20.87;79.25;102238.00;4989618;28;20323;-51
2022/11/13 09:04:21;;;;;;;14.53;9.73;;;;;;;20.99;77.05;102242.66;4993613;28;20046;-51
2022/11/13 09:07:05;;;;;;;15.73;8.50;;;;;;;22.46;64.91;102235.69;4987208;28;20041;-51
2022/11/13 09:09:49;;;;;;;13.07;7.50;;;;;;;21.96;66.71;102234.41;4989988;28;20045;-49
2022/11/13 09:12:33;;;;;;;17.23;8.33;;;;;;;22.91;61.49;102245.84;4990083;28;20074;-52
2022/11/13 09:15:17;;;;;;;15.70;7.80;;;;;;;23.43;58.84;102243.22;4992577;28;20065;-54
2022/11/13 09:18:02;;;;;;;10.20;6.87;;;;;;;23.47;56.46;102244.38;4987853;28;20096;-51
2022/11/13 09:20:47;;;;;;;10.07;7.20;;;;;;;26.12;51.00;102251.53;4990587;28;20426;-53
2022/11/13 09:23:31;;;;;;;11.00;6.73;;;;;;;24.10;52.97;102238.75;4988198;28;20050;-55
2022/11/13 09:26:16;;;;;;;13.43;7.60;;;;;;;24.01;53.80;102234.78;4993156;28;20163;-53
2022/11/13 09:29:01;;;;;;;10.97;7.20;;;;;;;24.27;53.46;102238.69;4991326;28;20038;-55
2022/11/13 09:31:44;;;;;;;11.63;7.37;;;;;;;24.68;51.15;102235.59;4987574;28;20046;-53
2022/11/13 09:34:29;;;;;;;12.47;6.87;;;;;;;24.88;50.01;102245.94;4988683;28;20042;-51
2022/11/13 09:37:14;;;;;;;11.10;7.00;;;;;;;25.22;47.97;102244.88;4988146;28;20073;-52
2022/11/13 09:39:58;;;;;;;10.10;6.30;;;;;;;26.03;45.25;102244.88;4991405;28;20054;-53
2022/11/13 09:42:44;;;;;;;14.83;6.63;;;;;;;26.40;44.75;102241.22;4991060;28;20091;-53
2022/11/13 09:45:30;;;;;;;13.20;6.77;;;;;;;26.69;44.66;102246.25;4991057;28;20053;-54
2022/11/13 09:48:36;;;;;;;10.02;6.43;;;;;;;26.51;43.30;102238.50;4987627;28;20046;-55
2022/11/13 09:51:26;;;;;;;9.02;6.18;;;;;;;26.31;43.46;102240.13;4990452;28;20037;-54
2022/11/13 09:54:14;;;;;;;9.77;6.47;;;;;;;26.70;42.32;102244.34;4988789;28;20057;-52
2022/11/13 09:56:58;;;;;;;;;;;;;;;26.85;41.23;102238.88;4990609;28;20068;-55
2022/11/13 09:59:53;;;;;;;9.93;6.22;;;;;;;27.28;40.19;102244.13;4986666;28;20057;-55
2022/11/13 10:02:54;;;;;;;11.00;6.28;;;;;;;27.76;38.90;102251.22;4992477;28;20061;-55
2022/11/13 10:05:50;;;;;;;7.45;5.38;;;;;;;28.12;37.92;102245.59;4990393;28;20046;-52
2022/11/13 10:08:45;;;;;;;8.45;5.57;;;;;;;28.52;37.10;102253.97;4990133;28;20057;-55
2022/11/13 10:11:37;;;;;;;9.23;5.60;;;;;;;32.33;31.57;102242.81;4988127;28;21579;-55
2022/11/13 10:14:33;;;;;;;10.40;5.78;;;;;;;29.70;33.55;102245.91;4988669;28;20053;-55
2022/11/13 10:17:40;;;;;;;8.25;4.95;;;;;;;29.21;33.89;102239.47;4989967;28;20077;-53
2022/11/13 10:20:45;;;;;;;7.30;4.95;;;;;;;28.73;34.57;102238.16;4992476;28;20050;-56
2022/11/13 10:23:34;;;;;;;6.03;4.70;;;;;;;28.60;33.73;102225.84;4994166;28;20065;-47
2022/11/13 10:26:21;;;;;;;7.20;5.05;;;;;;;28.80;33.75;102226.84;4988577;28;20037;-53
2022/11/13 10:29:16;;;;;;;;;;;;;;;29.78;34.05;102219.63;4987009;28;20034;-48
2022/11/13 10:32:15;;;;;;;9.63;5.28;;;;;;;30.47;32.11;102227.59;4987333;28;19925;-55
2022/11/13 10:35:11;;;;;;;8.27;5.45;;;;;;;30.16;31.41;102219.72;4986926;28;20041;-55
2022/11/13 10:38:03;;;;;;;7.03;4.88;;;;;;;29.86;31.62;102213.47;4987258;28;20072;-56
2022/11/13 10:40:48;;;;;;;8.35;5.40;;;;;;;29.88;32.30;102208.47;4988643;28;20073;-55
2022/11/13 10:43:32;;;;;;;10.38;5.47;;;;;;;30.63;31.82;102208.06;4986945;28;20049;-54
2022/11/13 10:46:28;;;;;;;10.32;5.65;;;;;;;30.99;30.45;102210.25;4986871;28;20046;-55
2022/11/13 10:49:25;;;;;;;9.70;5.47;;;;;;;32.85;28.19;102213.09;4986860;28;20042;-53
2022/11/13 10:52:29;;;;;;;8.20;5.90;;;;;;;37.27;24.43;102200.59;4986554;28;20054;-56
2022/11/13 10:55:34;;;;;;;8.30;5.60;;;;;;;35.00;25.59;102192.41;4985788;28;20284;-54
2022/11/13 10:58:18;;;;;;;10.90;5.45;;;;;;;33.10;27.83;102185.88;4985569;28;20057;-54
2022/11/13 11:01:22;;;;;;;12.98;7.32;;;;;;;32.40;28.95;102177.91;4986201;28;20054;-57
2022/11/13 11:04:12;;;;;;;13.07;6.55;;;;;;;32.97;28.58;102176.53;4986640;28;20046;-55
2022/11/13 11:07:11;;;;;;;9.02;6.45;;;;;;;32.89;28.30;102176.19;4983527;28;20042;-54
2022/11/13 11:09:55;;;;;;;12.93;7.90;;;;;;;33.11;28.34;102176.44;4987006;28;20053;-54
2022/11/13 11:12:39;;;;;;;10.02;6.55;;;;;;;33.34;27.79;102171.66;4982466;28;20072;-54
2022/11/13 11:15:38;;;;;;;12.18;6.53;;;;;;;33.35;27.50;102167.75;4987032;28;20081;-57
2022/11/13 11:18:29;;;;;;;12.32;6.10;;;;;;;33.67;27.32;102170.47;4985355;28;20434;-55
2022/11/13 11:21:19;;;;;;;10.02;6.20;;;;;;;33.84;26.96;102164.97;4986977;28;20068;-56
2022/11/13 11:24:28;;;;;;;8.20;5.68;;;;;;;33.79;27.40;102159.56;4989261;28;20078;-55
2022/11/13 11:27:36;;;;;;;8.32;5.93;;;;;;;33.82;26.87;102150.59;4987929;28;20049;-55
2022/11/13 11:30:25;;;;;;;12.27;6.28;;;;;;;33.91;27.10;102142.28;4987214;28;20050;-56
2022/11/13 11:33:18;;;;;;;11.95;5.45;;;;;;;34.05;27.02;102142.16;4985574;28;20114;-56
2022/11/13 11:36:14;;;;;;;7.72;5.78;;;;;;;34.37;27.42;102137.28;4987541;28;20062;-53
2022/11/13 11:39:25;;;;;;;11.20;5.90;;;;;;;34.66;27.04;102133.00;4984584;28;20054;-55
2022/11/13 11:42:31;;;;;;;8.00;5.78;;;;;;;34.73;27.38;102124.97;4980656;28;20042;-54
2022/11/13 11:45:37;;;;;;;8.82;5.72;;;;;;;34.88;27.16;102128.34;4981656;28;20074;-55
2022/11/13 11:48:26;;;;;;;8.33;6.10;;;;;;;35.17;27.37;102124.00;4982842;28;20053;-56
2022/11/13 11:51:32;;;;;;;9.18;6.00;;;;;;;35.42;27.24;102113.09;4987238;28;20107;-56
2022/11/13 11:54:23;;;;;;;12.98;8.43;;;;;;;35.66;27.24;102117.22;5054941;28;20063;-55
2022/11/13 11:57:43;;;;;;;30.85;18.15;;;;;;;35.98;27.05;102109.25;5056417;28;20040;-54
2022/11/13 12:00:31;;;;;;;11.48;6.47;;;;;;;36.02;26.82;102102.72;5058153;28;20527;-58
2022/11/13 12:03:54;;;;;;;13.45;8.70;;;;;;;35.91;26.61;102100.66;5047674;28;20052;-54
2022/11/13 12:06:54;;;;;;;10.18;6.90;;;;;;;36.57;25.88;102104.66;5059682;28;20064;-57
2022/11/13 12:09:47;;;;;;;15.82;7.45;;;;;;;39.36;23.99;102104.31;5062216;28;20040;-53
2022/11/13 12:12:44;;;;;;;9.75;6.65;;;;;;;42.09;21.74;102119.00;5056664;28;20048;-56
2022/11/13 12:15:55;;;;;;;9.73;7.00;;;;;;;37.73;24.50;102100.84;5063040;28;20423;-55
2022/11/13 12:19:04;;;;;;;9.45;6.18;;;;;;;36.68;25.69;102099.47;5062928;28;20032;-54
2022/11/13 12:22:09;;;;;;;12.55;6.18;;;;;;;36.65;25.69;102091.78;5059119;28;20040;-56
2022/11/13 12:25:30;;;;;;;13.95;6.05;;;;;;;37.28;25.46;102087.91;5058894;28;20115;-55
2022/11/13 12:28:32;;;;;;;9.85;6.18;;;;;;;37.46;24.92;102082.84;5054465;28;20044;-56
2022/11/13 12:31:38;;;;;;;9.48;5.43;;;;;;;37.15;25.57;102082.31;5058507;28;20048;-54
2022/11/13 12:34:40;;;;;;;9.70;6.10;;;;;;;37.83;25.18;102076.38;5057069;28;20049;-55
2022/11/13 12:37:35;;;;;;;10.95;5.75;;;;;;;37.57;25.59;102077.63;5061440;28;20047;-56
2022/11/13 12:40:48;;;;;;;9.83;6.43;;;;;;;37.65;25.76;102068.28;5052088;28;20082;-57